Latest Weather Observations for Kuitpo

IDS60901

Issued at 4:11 pm CDT Wednesday 1 April 2015 (issued every 10 minutes, with the page automatically refreshed every 10 minutes)

About weather observations | Map of Adelaide area stations | Latest observations for Adelaide area | Other Formats
Station Details ID: 023887 Name: KUITPO FOREST RESERVE Lat: -35.17 Lon: 138.68 Height: 365.0 m
Data from the previous 72 hours. | See also: Recent months at Kuitpo
Date/Time
CDT
Tmp

°C
App
Tmp
°C
Dew
Point
°C
Rel
Hum
%
Delta-T

°C
Wind Press
QNH
hPa
Press
MSL
hPa
Rain
since
9 am
mm
Dir
 
Spd
km/h
Gust
km/h
Spd
kts
Gust
kts
01/04:00pm 20.3 18.2 13.7 66 3.9 WSW 17 24 9 13 1014.5 1013.8 0.0
01/03:30pm 22.8 19.9 12.4 52 6.0 WSW 19 30 10 16 1014.3 1013.6 0.0
01/03:00pm 24.5 20.7 11.1 43 7.6 W 22 41 12 22 1014.0 1013.3 0.0
01/02:30pm 25.1 19.7 8.1 34 9.2 WNW 26 43 14 23 1014.1 1013.4 0.0
01/02:00pm 25.9 20.3 5.5 27 10.6 NW 24 50 13 27 1014.5 1013.8 0.0
01/01:44pm 26.4 19.9 4.8 25 11.1 NW 28 46 15 25 1014.5 1013.8 0.0
01/01:30pm 27.0 20.9 4.7 24 11.5 NW 26 48 14 26 1014.6 1013.9 0.0
01/01:00pm 26.1 18.0 3.4 23 11.4 NW 35 56 19 30 1014.5 1013.8 0.0
01/12:37pm 27.2 20.5 3.7 22 12.0 NNW 28 56 15 30 1014.7 1014.0 0.0
01/12:30pm 27.7 21.5 4.1 22 12.1 NW 26 46 14 25 1014.8 1014.1 0.0
01/12:00pm 26.7 19.8 2.6 21 12.0 NNW 28 50 15 27 1014.8 1014.1 0.0
01/11:45am 26.6 19.8 3.2 22 11.8 NNW 28 50 15 27 1014.9 1014.3 0.0
01/11:30am 25.7 19.2 2.4 22 11.5 NNW 26 43 14 23 1015.0 1014.4 0.0
01/11:00am 25.2 19.5 2.6 23 11.1 NNW 22 39 12 21 1015.0 1014.4 0.0
01/10:30am 24.8 18.6 2.3 23 11.0 NNW 24 48 13 26 1015.2 1014.6 0.0
01/10:00am 24.6 18.4 2.1 23 10.9 NNW 24 41 13 22 1015.4 1014.4 0.0
01/09:30am 24.2 18.3 1.8 23 10.8 NNW 22 41 12 22 1015.2 1014.2 0.0
01/09:00am 23.8 18.3 0.8 22 10.8 NNW 19 30 10 16 1015.5 1014.5 0.0
01/08:30am 23.6 18.0 1.3 23 10.6 NNW 20 35 11 19 1015.4 1014.4 0.0
01/08:00am 23.5 18.1 1.2 23 10.6 N 19 35 10 19 1015.6 1014.6 0.0
01/07:30am 23.4 17.4 1.1 23 10.5 NNW 22 39 12 21 1015.6 1014.6 0.0
01/07:00am 23.3 18.3 1.6 24 10.3 N 17 30 9 16 1015.7 1014.7 0.0
01/06:30am 22.8 18.4 2.8 27 9.7 N 15 32 8 17 1015.5 1014.5 0.0
01/06:00am 21.4 17.8 3.1 30 8.8 N 11 20 6 11 1015.5 1014.5 0.0
01/05:30am 21.2 17.8 3.9 32 8.5 NNE 11 19 6 10 1015.5 1014.5 0.0
01/05:00am 21.4 17.7 4.5 33 8.4 NNE 13 19 7 10 1015.7 1014.7 0.0
01/04:30am 20.8 17.2 5.2 36 7.8 NNE 13 19 7 10 1015.9 1014.9 0.0
01/04:00am 19.4 16.0 5.8 41 6.8 NNE 13 24 7 13 1016.3 1015.2 0.0
01/03:30am 18.8 15.3 5.6 42 6.6 NNE 13 19 7 10 1016.5 1015.5 0.0
01/03:00am 18.6 15.2 5.8 43 6.4 NE 13 19 7 10 1017.2 1016.2 0.0
01/02:30am 18.5 14.3 5.7 43 6.4 NE 17 20 9 11 1017.6 1016.6 0.0
01/02:00am 18.3 14.1 5.8 44 6.2 NE 17 20 9 11 1018.0 1017.0 0.0
01/01:30am 18.4 14.6 5.9 44 6.2 NE 15 20 8 11 1018.4 1017.4 0.0
01/01:00am 18.8 15.0 6.0 43 6.4 NE 15 20 8 11 1018.7 1017.7 0.0
01/12:30am 19.7 15.6 6.1 41 6.9 NE 17 24 9 13 1018.8 1017.9 0.0
01/12:00am 19.5 15.5 6.6 43 6.6 NE 17 20 9 11 1019.2 1018.2 0.0
 
Date/Time
CDT
Tmp

°C
App
Tmp
°C
Dew
Point
°C
Rel
Hum
%
Delta-T

°C
Wind Press
QNH
hPa
Press
MSL
hPa
Rain
since
9 am
mm
Dir
 
Spd
km/h
Gust
km/h
Spd
kts
Gust
kts
31/11:30pm 19.1 15.7 7.8 48 5.9 NE 15 20 8 11 1019.4 1018.4 0.0
31/11:00pm 20.1 17.5 7.8 45 6.5 ENE 11 15 6 8 1019.7 1018.7 0.0
31/10:30pm 20.6 17.6 7.6 43 6.8 ENE 13 17 7 9 1019.7 1018.7 0.0
31/10:00pm 21.1 18.0 7.3 41 7.2 ENE 13 15 7 8 1019.6 1018.6 0.0
31/09:30pm 21.6 18.5 7.1 39 7.6 ENE 13 15 7 8 1019.8 1018.8 0.0
31/09:00pm 21.7 18.2 7.2 39 7.6 E 15 17 8 9 1019.6 1018.6 0.0
31/08:30pm 21.9 19.2 7.3 39 7.7 ESE 11 15 6 8 1019.8 1018.8 0.0
31/08:00pm 22.1 19.3 7.1 38 7.9 ESE 11 15 6 8 1019.6 1018.6 0.0
31/07:30pm 23.4 21.3 6.7 34 8.7 S 7 9 4 5 1019.9 1018.9 0.0
31/07:00pm 23.7 21.8 6.9 34 8.9 SSW 6 6 3 3 1019.9 1018.9 0.0
31/06:30pm 23.9 22.1 7.1 34 8.9 S 6 7 3 4 1019.8 1018.8 0.0
31/06:00pm 24.7 23.0 7.4 33 9.2 W 6 9 3 5 1019.8 1018.8 0.0
31/05:30pm 25.9 23.6 7.5 31 9.9 SW 9 15 5 8 1019.6 1018.6 0.0
31/05:00pm 25.4 22.4 7.5 32 9.6 W 13 20 7 11 1019.6 1018.6 0.0
31/04:30pm 25.8 22.1 7.9 32 9.7 WSW 17 24 9 13 1019.9 1018.9 0.0
31/04:00pm 26.1 22.1 8.1 32 9.8 WSW 19 30 10 16 1020.0 1019.0 0.0
31/03:30pm 27.9 25.0 8.2 29 10.8 WSW 13 24 7 13 1020.0 1019.0 0.0
31/03:00pm 27.4 24.7 7.3 28 10.9 WSW 11 20 6 11 1020.4 1019.4 0.0
31/02:30pm 27.4 25.3 8.3 30 10.5 W 9 24 5 13 1020.7 1019.7 0.0
31/02:00pm 26.3 23.4 8.3 32 9.9 W 13 20 7 11 1021.3 1020.4 0.0
31/01:30pm 26.1 24.0 8.1 32 9.8 WNW 9 19 5 10 1021.7 1020.8 0.0
31/01:00pm 25.6 22.6 7.7 32 9.7 NW 13 22 7 12 1022.3 1021.3 0.0
31/12:30pm 25.7 23.4 9.1 35 9.2 WNW 11 19 6 10 1022.7 1021.7 0.0
31/12:00pm 26.7 24.8 9.1 33 9.8 NE 9 17 5 9 1023.1 1022.1 0.0
31/11:30am 25.3 22.8 8.3 34 9.2 N 11 17 6 9 1023.4 1022.4 0.0
31/11:00am 23.8 21.3 9.8 41 7.8 NE 13 19 7 10 1023.5 1022.5 0.0
31/10:30am 22.1 19.4 10.3 47 6.5 NE 15 22 8 12 1023.6 1022.7 0.0
31/10:00am 19.6 16.1 10.3 55 5.1 NE 19 28 10 15 1023.8 1022.9 0.0
31/09:30am 18.0 14.4 10.6 62 4.0 NE 20 28 11 15 1023.9 1023.0 0.0
31/09:00am 16.4 12.5 10.9 70 3.0 NE 22 32 12 17 1023.9 1023.0 0.0
31/08:30am 14.8 11.1 11.4 80 1.8 ENE 22 28 12 15 1023.8 1022.9 0.0
31/08:00am 13.7 9.7 11.9 89 1.0 NE 24 33 13 18 1023.6 1022.7 0.0
31/07:30am 13.2 9.7 12.3 94 0.5 ENE 22 28 12 15 1023.6 1022.7 0.0
31/07:00am 13.3 9.8 12.2 93 0.6 NE 22 30 12 16 1023.4 1022.4 0.0
31/06:30am 13.2 9.7 12.1 93 0.6 NE 22 30 12 16 1023.5 1022.5 0.0
31/06:00am 13.4 9.8 11.8 90 0.9 NE 22 30 12 16 1023.3 1022.3 0.0
31/05:30am 13.5 9.4 11.6 88 1.0 NE 24 30 13 16 1023.1 1022.1 0.0
31/05:00am 13.6 9.8 11.3 86 1.2 ENE 22 30 12 16 1023.2 1022.2 0.0
31/04:30am 13.7 10.3 11.2 85 1.3 ENE 20 26 11 14 1023.4 1022.4 0.0
31/04:00am 13.9 10.1 11.2 84 1.5 ENE 22 28 12 15 1023.4 1022.4 0.0
31/03:30am 13.9 10.5 11.1 83 1.5 ENE 20 28 11 15 1023.4 1022.4 0.0
31/03:00am 14.0 10.8 11.2 83 1.5 ENE 19 24 10 13 1023.7 1022.8 0.0
31/02:30am 14.2 11.0 11.2 82 1.6 ENE 19 24 10 13 1023.7 1022.8 0.0
31/02:00am 14.1 10.7 11.4 84 1.5 ENE 20 26 11 14 1023.8 1022.9 0.0
31/01:30am 14.1 10.9 11.3 83 1.5 ENE 19 22 10 12 1024.0 1023.1 0.0
31/01:00am 14.1 11.3 11.3 83 1.5 ENE 17 22 9 12 1023.9 1023.0 0.0
31/12:30am 14.9 12.0 11.1 78 2.1 ENE 17 20 9 11 1024.1 1023.2 0.0
31/12:00am 15.0 11.5 11.0 77 2.2 ENE 20 24 11 13 1024.2 1023.3 0.0
 
Date/Time
CDT
Tmp

°C
App
Tmp
°C
Dew
Point
°C
Rel
Hum
%
Delta-T

°C
Wind Press
QNH
hPa
Press
MSL
hPa
Rain
since
9 am
mm
Dir
 
Spd
km/h
Gust
km/h
Spd
kts
Gust
kts
30/11:30pm 14.8 12.0 11.2 79 1.9 E 17 22 9 12 1024.5 1023.6 0.0
30/11:00pm 14.6 12.1 11.2 80 1.8 E 15 19 8 10 1024.7 1023.8 0.0
30/10:30pm 14.3 11.1 11.3 82 1.6 ESE 19 22 10 12 1024.9 1023.9 0.0
30/10:00pm 14.5 11.7 11.5 82 1.6 ESE 17 22 9 12 1024.9 1023.9 0.0
30/09:30pm 14.7 12.0 11.7 82 1.6 ESE 17 20 9 11 1025.0 1024.0 0.0
30/09:00pm 15.0 12.3 11.8 81 1.8 ESE 17 24 9 13 1024.9 1023.9 0.0
30/08:30pm 15.3 12.6 11.7 79 2.0 SE 17 22 9 12 1024.5 1023.6 0.0
30/08:00pm 15.9 13.4 11.1 73 2.6 SE 15 24 8 13 1024.1 1023.2 0.0
30/07:30pm 16.9 14.0 11.0 68 3.2 SE 17 26 9 14 1023.9 1023.0 0.0
30/07:00pm 18.0 15.5 11.1 64 3.8 SE 15 22 8 12 1023.8 1022.9 0.0
30/06:30pm 19.0 16.2 11.3 61 4.3 SE 17 26 9 14 1023.6 1022.7 0.0
30/06:00pm 20.4 18.0 11.3 56 5.1 SE 15 22 8 12 1023.4 1022.4 0.0
30/05:30pm 21.6 18.5 10.4 49 6.2 SSE 17 26 9 14 1023.3 1022.3 0.0
30/05:00pm 23.3 21.3 11.4 47 6.8 SW 13 22 7 12 1023.1 1022.1 0.0
30/04:30pm 23.4 21.4 11.5 47 6.8 WSW 13 20 7 11 1022.9 1021.9 0.0
30/04:00pm 23.1 20.4 11.8 49 6.5 SW 17 24 9 13 1023.0 1022.0 0.0
30/03:30pm 23.3 21.0 11.7 48 6.6 WSW 15 24 8 13 1023.1 1022.1 0.0
30/03:00pm 22.8 20.1 11.8 50 6.3 W 17 26 9 14 1023.3 1022.3 0.0
30/02:30pm 22.3 19.6 11.7 51 6.0 W 17 24 9 13 1023.4 1022.4 0.0
30/02:00pm 22.7 20.8 11.7 49 6.3 W 13 24 7 13 1023.6 1022.7 0.0
30/01:30pm 22.9 20.1 10.0 44 7.1 W 15 22 8 12 1023.8 1022.9 0.0
30/01:00pm 22.4 20.5 8.9 42 7.3 NW 9 17 5 9 1024.0 1023.1 0.0
30/12:30pm 22.3 20.4 9.1 43 7.2 SW 9 15 5 8 1024.3 1023.4 0.0
30/12:00pm 21.0 19.8 9.6 48 6.2 WSW 6 15 3 8 1024.6 1023.7 0.0
30/11:30am 21.4 20.8 10.3 49 6.1 SE 4 7 2 4 1025.0 1024.0 0.0
30/11:00am 19.9 18.8 10.6 55 5.1 NE 7 13 4 7 1025.2 1024.2 0.0
30/10:30am 18.7 17.2 12.0 65 3.8 NE 11 17 6 9 1025.2 1024.2 0.0
30/10:00am 18.2 17.0 12.9 71 3.0 ENE 11 17 6 9 1025.1 1024.1 0.0
30/09:30am 16.5 14.9 12.8 79 2.1 ENE 13 19 7 10 1025.0 1024.0 0.0
30/09:00am 14.9 13.9 12.4 85 1.4 ENE 9 13 5 7 1024.6 1023.7 0.0
30/08:30am 13.9 13.1 13.9 100 0.0 ENE 11 15 6 8 1024.2 1023.3 0.0
30/08:00am 12.5 10.8 12.5 100 0.0 ENE 13 15 7 8 1023.9 1023.0 0.0
30/07:30am 12.2 10.4 12.2 100 0.0 ENE 13 15 7 8 1023.5 1022.5 0.0
30/07:00am 13.1 11.6 13.1 100 0.0 E 13 15 7 8 1023.3 1022.3 0.0
30/06:30am 13.1 12.0 13.1 100 0.0 E 11 15 6 8 1022.9 1021.9 0.0
30/06:00am 13.1 11.6 13.1 100 0.0 E 13 15 7 8 1022.7 1021.7 0.0
30/05:30am 12.6 11.2 11.0 90 0.9 ENE 9 13 5 7 1022.5 1021.5 0.0
30/05:00am 12.2 10.8 9.6 84 1.3 NE 7 11 4 6 1022.3 1021.3 0.0
30/04:30am 12.0 10.5 9.0 82 1.5 NE 7 11 4 6 1022.4 1021.4 0.0
30/04:00am 12.9 11.1 9.4 79 1.8 ENE 9 11 5 6 1022.4 1021.4 0.0
30/03:30am 13.1 11.2 9.2 77 2.0 NE 9 11 5 6 1022.4 1021.4 0.0
30/03:00am 13.7 12.1 10.3 80 1.8 NE 9 11 5 6 1022.6 1021.6 0.0
30/02:30am 13.2 11.6 10.2 82 1.6 NNE 9 11 5 6 1022.9 1021.9 0.0
30/02:00am 13.9 12.9 11.1 83 1.5 ENE 7 9 4 5 1022.8 1021.8 0.0
30/01:30am 14.5 13.7 11.6 83 1.6 ESE 7 9 4 5 1023.0 1022.0 0.0
30/01:00am 14.8 14.0 11.6 81 1.8 ESE 7 7 4 4 1023.1 1022.1 0.0
30/12:30am 14.9 14.0 10.5 75 2.3 SE 6 7 3 4 1023.3 1022.3 0.0
30/12:00am 15.2 13.7 9.1 67 3.2 SE 7 7 4 4 1023.2 1022.2 0.0
 
Date/Time
CDT
Tmp

°C
App
Tmp
°C
Dew
Point
°C
Rel
Hum
%
Delta-T

°C
Wind Press
QNH
hPa
Press
MSL
hPa
Rain
since
9 am
mm
Dir
 
Spd
km/h
Gust
km/h
Spd
kts
Gust
kts
29/11:30pm 15.5 13.8 8.5 63 3.6 SSE 7 9 4 5 1023.3 1022.3 0.0
29/11:00pm 16.2 14.0 5.5 49 5.2 S 6 7 3 4 1023.4 1022.4 0.0
29/10:30pm 16.3 15.5 6.4 52 4.9 CALM 0 0 0 0 1023.5 1022.5 0.0
29/10:00pm 16.2 14.3 7.7 57 4.3 SW 7 9 4 5 1023.1 1022.1 0.0
29/09:30pm 16.8 15.4 8.8 59 4.2 SW 6 9 3 5 1023.0 1022.0 0.0
29/09:00pm 17.1 16.9 9.0 59 4.3 CALM 0 0 0 0 1022.7 1021.7 0.0
29/08:30pm 17.1 15.6 9.0 59 4.3 WSW 7 9 4 5 1022.5 1021.5 0.0
29/08:00pm 17.2 15.7 9.1 59 4.3 WSW 7 9 4 5 1022.3 1021.3 0.0
29/07:30pm 17.5 15.9 8.9 57 4.5 WSW 7 11 4 6 1022.0 1021.0 0.0
29/07:00pm 18.6 16.2 8.6 52 5.3 WSW 11 17 6 9 1021.8 1020.9 0.0
29/06:30pm 20.2 17.5 8.8 48 6.1 W 13 20 7 11 1021.5 1020.6 0.0
29/06:00pm 20.0 17.2 8.7 48 6.0 W 13 20 7 11 1021.3 1020.4 0.0
29/05:30pm 20.3 17.6 8.9 48 6.1 W 13 20 7 11 1021.1 1020.1 0.0
29/05:00pm 20.4 17.6 8.7 47 6.3 W 13 20 7 11 1021.1 1020.1 0.0
29/04:30pm 20.6 18.1 8.3 45 6.5 WNW 11 17 6 9 1021.1 1020.1 0.0

Latest Capital City Observations: Canberra | Sydney | Melbourne | Brisbane | Adelaide | Perth | Hobart | Darwin

Other Formats:

Comma delimited format used in spreadsheet applications
http://www.bom.gov.au/fwo/IDS60901/IDS60901.94683.axf

JavaScript Object Notation format (JSON) in row-major order
http://www.bom.gov.au/fwo/IDS60901/IDS60901.94683.json